Time;durP1;ratioP1;P1;durP2;ratioP2;P2;SDS_P1;SDS_P2;PMS_P1;PMS_P2;Temp;Humidity;BMP_temperature;BMP_pressure;BME280_temperature;BME280_humidity;BME280_pressure;Samples;Min_cycle;Max_cycle;Signal;HPM_P1;HPM_P2
2024/01/31 00:00:25;;;;;;;6.43;5.40;;;5.30;62.10;;;;;;5095195;28;20090;-71
2024/01/31 00:02:51;;;;;;;5.63;4.78;;;5.30;62.20;;;;;;5110146;28;20453;-72
2024/01/31 00:05:17;;;;;;;6.38;5.13;;;5.30;62.20;;;;;;5110094;28;20020;-71
2024/01/31 00:07:45;;;;;;;5.82;5.00;;;5.30;62.30;;;;;;5110897;28;20020;-72
2024/01/31 00:10:11;;;;;;;6.05;4.80;;;5.30;62.20;;;;;;5075972;28;20051;-72
2024/01/31 00:12:37;;;;;;;7.25;4.60;;;5.30;62.20;;;;;;5094244;28;20031;-72
2024/01/31 00:15:03;;;;;;;5.85;4.47;;;5.30;62.20;;;;;;5094243;28;20507;-72
2024/01/31 00:17:29;;;;;;;5.95;5.03;;;5.30;62.20;;;;;;5075486;28;20373;-73
2024/01/31 00:19:55;;;;;;;6.57;5.28;;;5.20;62.20;;;;;;5109925;28;20028;-72
2024/01/31 00:22:20;;;;;;;6.60;5.30;;;5.30;62.30;;;;;;5093946;28;20028;-72
2024/01/31 00:24:46;;;;;;;6.93;5.00;;;5.30;62.30;;;;;;5094064;28;20016;-72
2024/01/31 00:27:12;;;;;;;7.38;5.43;;;5.20;62.20;;;;;;5094035;28;20358;-72
2024/01/31 00:29:38;;;;;;;6.78;5.32;;;5.30;62.20;;;;;;5109985;28;20339;-72
2024/01/31 00:32:04;;;;;;;6.60;5.05;;;5.30;62.20;;;;;;5094043;28;20031;-73
2024/01/31 00:34:31;;;;;;;7.10;5.45;;;5.20;62.20;;;;;;5093719;28;20028;-72
2024/01/31 00:36:57;;;;;;;7.85;5.35;;;5.20;62.20;;;;;;5093963;28;20056;-71
2024/01/31 00:39:28;;;;;;;8.40;5.47;;;5.20;62.30;;;;;;5092959;28;20051;-72
2024/01/31 00:41:54;;;;;;;7.10;5.63;;;5.20;62.20;;;;;;5093987;28;20486;-72
2024/01/31 00:44:20;;;;;;;6.78;5.30;;;5.20;62.30;;;;;;5075492;28;20051;-72
2024/01/31 00:46:48;;;;;;;7.32;5.40;;;5.20;62.30;;;;;;5094211;28;20425;-72
2024/01/31 00:49:14;;;;;;;8.13;5.80;;;5.20;62.30;;;;;;5093965;28;20396;-73
2024/01/31 00:51:44;;;;;;;7.15;5.15;;;5.20;62.40;;;;;;5075689;28;20020;-72
2024/01/31 00:54:13;;;;;;;6.78;4.80;;;5.20;62.40;;;;;;5094086;28;20020;-71
2024/01/31 00:56:39;;;;;;;6.63;4.93;;;5.20;62.40;;;;;;5075695;28;20032;-72
2024/01/31 00:59:05;;;;;;;6.68;5.03;;;5.20;62.40;;;;;;5076215;28;20024;-72
2024/01/31 01:01:31;;;;;;;5.95;5.00;;;5.20;62.30;;;;;;5075926;28;20363;-71
2024/01/31 01:03:56;;;;;;;7.45;5.93;;;5.20;62.30;;;;;;5093860;28;20045;-72
2024/01/31 01:06:22;;;;;;;7.10;5.50;;;5.20;62.30;;;;;;5093486;28;20024;-71
2024/01/31 01:08:48;;;;;;;6.15;5.03;;;5.20;62.30;;;;;;5093710;28;20350;-71
2024/01/31 01:11:14;;;;;;;6.38;4.85;;;5.20;62.30;;;;;;5075369;28;20164;-71
2024/01/31 01:13:39;;;;;;;6.32;4.68;;;5.20;62.30;;;;;;5075564;28;20173;-70
2024/01/31 01:16:05;;;;;;;6.97;5.18;;;5.20;62.30;;;;;;5094057;28;20145;-70
2024/01/31 01:18:31;;;;;;;7.05;5.13;;;5.20;62.30;;;;;;5093754;28;20024;-71
2024/01/31 01:20:57;;;;;;;6.75;5.40;;;5.20;62.30;;;;;;5075635;28;20024;-72
2024/01/31 01:23:22;;;;;;;6.50;5.00;;;5.20;62.30;;;;;;5093786;28;20024;-70
2024/01/31 01:25:48;;;;;;;6.15;4.97;;;5.20;62.30;;;;;;5093985;28;20553;-71
2024/01/31 01:28:14;;;;;;;6.65;5.20;;;5.20;62.30;;;;;;5093680;28;20504;-71
2024/01/31 01:30:40;;;;;;;6.38;4.72;;;5.20;62.30;;;;;;5097390;28;20458;-71
2024/01/31 01:33:06;;;;;;;5.28;4.65;;;5.10;62.30;;;;;;5097239;28;20020;-72
2024/01/31 01:35:32;;;;;;;6.47;4.93;;;5.10;62.30;;;;;;5097862;28;20418;-71
2024/01/31 01:37:57;;;;;;;6.53;5.10;;;5.10;62.30;;;;;;5097070;28;20400;-71
2024/01/31 01:40:23;;;;;;;6.30;4.78;;;5.10;62.30;;;;;;5096905;28;20044;-71
2024/01/31 01:42:49;;;;;;;6.07;5.05;;;5.10;62.30;;;;;;5078870;28;20055;-72
2024/01/31 01:45:15;;;;;;;7.32;5.50;;;5.10;62.30;;;;;;5097349;28;20032;-70
2024/01/31 01:47:43;;;;;;;6.55;4.80;;;5.10;62.40;;;;;;5096863;28;20020;-71
2024/01/31 01:50:10;;;;;;;7.00;5.57;;;5.10;62.40;;;;;;5079231;28;20020;-71
2024/01/31 01:52:37;;;;;;;6.82;5.63;;;5.10;62.40;;;;;;5096848;28;20058;-72
2024/01/31 01:55:04;;;;;;;7.00;5.30;;;5.10;62.40;;;;;;5078595;28;20074;-71
2024/01/31 01:57:33;;;;;;;6.53;5.35;;;5.10;62.40;;;;;;5078583;28;20020;-72
2024/01/31 01:59:59;;;;;;;7.05;5.28;;;5.10;62.40;;;;;;5096437;28;20044;-72
2024/01/31 02:02:27;;;;;;;7.63;6.07;;;5.10;62.40;;;;;;5096467;28;20081;-72
2024/01/31 02:04:53;;;;;;;6.85;5.32;;;5.10;62.40;;;;;;5078484;28;20072;-71
2024/01/31 02:07:25;;;;;;;7.78;5.85;;;5.10;62.40;;;;;;5078425;28;20031;-71
2024/01/31 02:09:52;;;;;;;7.45;5.60;;;5.10;62.40;;;;;;5078208;28;20043;-71
2024/01/31 02:12:18;;;;;;;6.57;5.38;;;5.10;62.40;;;;;;5096085;28;20484;-71
2024/01/31 02:14:45;;;;;;;7.68;5.75;;;5.10;62.50;;;;;;5078233;28;20024;-72
2024/01/31 02:17:11;;;;;;;5.93;4.70;;;5.10;62.50;;;;;;5078253;28;20020;-71
2024/01/31 02:19:36;;;;;;;8.18;6.35;;;5.10;62.50;;;;;;5078259;28;20016;-72
2024/01/31 02:22:05;;;;;;;7.32;5.32;;;5.10;62.50;;;;;;5096572;28;20032;-71
2024/01/31 02:24:30;;;;;;;7.82;6.10;;;5.10;62.50;;;;;;5078053;28;20020;-72
2024/01/31 02:26:56;;;;;;;7.70;5.90;;;5.10;62.40;;;;;;5096509;28;20108;-71
2024/01/31 02:29:22;;;;;;;6.82;5.70;;;5.10;62.40;;;;;;5096266;28;20347;-73
2024/01/31 02:31:48;;;;;;;7.65;6.07;;;5.10;62.50;;;;;;5095813;28;20036;-73
2024/01/31 02:34:13;;;;;;;8.18;6.15;;;5.10;62.50;;;;;;5096141;28;20020;-72
2024/01/31 02:36:39;;;;;;;6.60;5.88;;;5.00;62.50;;;;;;5095845;28;20020;-72
2024/01/31 02:39:05;;;;;;;7.38;5.68;;;5.10;62.50;;;;;;5095972;28;20028;-72
2024/01/31 02:41:31;;;;;;;7.43;5.65;;;5.00;62.50;;;;;;5095577;28;20024;-72
2024/01/31 02:43:57;;;;;;;7.40;5.80;;;5.00;62.50;;;;;;5095600;28;20085;-72
2024/01/31 02:46:22;;;;;;;7.15;5.70;;;5.10;62.60;;;;;;5077801;28;20028;-72
2024/01/31 02:48:48;;;;;;;7.05;6.22;;;5.10;62.60;;;;;;5095530;28;20434;-72
2024/01/31 02:51:14;;;;;;;7.70;5.65;;;5.10;62.60;;;;;;5095741;28;20032;-72
2024/01/31 02:53:40;;;;;;;7.45;5.97;;;5.10;62.60;;;;;;5077547;28;20047;-72
2024/01/31 02:56:09;;;;;;;8.07;6.38;;;5.10;62.60;;;;;;5095936;28;20024;-72
2024/01/31 02:58:38;;;;;;;7.53;6.28;;;5.10;62.60;;;;;;5095914;28;20084;-72
2024/01/31 03:01:07;;;;;;;8.10;6.00;;;5.10;62.60;;;;;;5073868;28;20182;-74
2024/01/31 03:03:33;;;;;;;8.35;6.03;;;5.10;62.70;;;;;;5074004;28;20052;-72
2024/01/31 03:05:59;;;;;;;7.38;5.90;;;5.10;62.60;;;;;;5075875;28;20125;-71
2024/01/31 03:08:24;;;;;;;7.97;5.72;;;5.10;62.70;;;;;;5073349;28;20336;-71
2024/01/31 03:10:50;;;;;;;10.57;6.75;;;5.10;62.60;;;;;;5075150;28;20025;-71
2024/01/31 03:13:16;;;;;;;7.43;5.38;;;5.00;62.60;;;;;;5074727;28;20108;-71
2024/01/31 03:15:42;;;;;;;8.25;6.47;;;5.00;62.70;;;;;;5075021;28;20028;-73
2024/01/31 03:18:07;;;;;;;8.57;6.30;;;5.10;62.70;;;;;;5074767;28;20028;-71
2024/01/31 03:20:34;;;;;;;9.63;7.32;;;5.10;62.70;;;;;;5075246;28;20047;-72
2024/01/31 03:23:00;;;;;;;8.30;6.25;;;5.10;62.70;;;;;;5073823;28;20067;-72
2024/01/31 03:25:26;;;;;;;7.75;6.15;;;5.10;62.70;;;;;;5075114;28;20020;-72
2024/01/31 03:27:52;;;;;;;8.05;6.28;;;5.10;62.70;;;;;;5073429;28;20515;-71
2024/01/31 03:30:18;;;;;;;8.88;6.20;;;5.00;62.70;;;;;;5074443;28;20023;-71
2024/01/31 03:32:44;;;;;;;8.00;6.05;;;5.00;62.70;;;;;;5074488;28;20017;-72
2024/01/31 03:35:10;;;;;;;7.35;5.90;;;5.00;62.70;;;;;;5073177;28;20035;-72
2024/01/31 03:37:36;;;;;;;6.60;5.32;;;5.00;62.70;;;;;;5073312;28;20024;-71
2024/01/31 03:40:04;;;;;;;7.80;5.82;;;5.00;62.70;;;;;;5072992;28;20025;-72
2024/01/31 03:42:30;;;;;;;6.90;5.40;;;5.00;62.70;;;;;;5073683;28;20443;-74
2024/01/31 03:44:57;;;;;;;8.10;5.75;;;5.00;62.70;;;;;;5074199;28;20012;-72
2024/01/31 03:47:23;;;;;;;6.38;5.25;;;5.00;62.70;;;;;;5073203;28;20028;-72
2024/01/31 03:49:51;;;;;;;8.68;6.10;;;5.00;62.70;;;;;;5073031;28;20020;-71
2024/01/31 03:52:17;;;;;;;7.63;5.45;;;5.00;62.70;;;;;;5074323;28;20025;-73
2024/01/31 03:54:43;;;;;;;7.47;5.57;;;5.00;62.70;;;;;;5074134;28;20029;-72
2024/01/31 03:57:09;;;;;;;8.82;5.90;;;5.00;62.60;;;;;;5074611;28;20028;-72
2024/01/31 03:59:36;;;;;;;7.85;5.90;;;5.00;62.70;;;;;;5072957;28;20020;-71
2024/01/31 04:02:02;;;;;;;8.77;5.47;;;5.00;62.70;;;;;;5093049;28;20043;-72
2024/01/31 04:04:28;;;;;;;7.30;5.70;;;5.00;62.70;;;;;;5076308;28;20051;-72
2024/01/31 04:06:54;;;;;;;7.35;5.78;;;5.00;62.70;;;;;;5076230;28;20050;-72
2024/01/31 04:09:20;;;;;;;7.82;5.65;;;5.00;62.70;;;;;;5094626;28;20046;-72
2024/01/31 04:11:45;;;;;;;7.57;6.00;;;5.00;62.70;;;;;;5076143;28;20024;-71
2024/01/31 04:14:11;;;;;;;6.53;5.32;;;5.00;62.70;;;;;;5093874;28;20026;-71
2024/01/31 04:16:37;;;;;;;7.95;5.85;;;5.00;62.80;;;;;;5093904;28;20103;-72
2024/01/31 04:19:02;;;;;;;8.07;5.45;;;5.00;62.80;;;;;;5094215;28;20024;-71
2024/01/31 04:21:28;;;;;;;8.10;5.93;;;5.00;62.80;;;;;;5075717;28;20024;-71
2024/01/31 04:23:54;;;;;;;7.50;5.93;;;5.00;62.70;;;;;;5076047;28;20047;-72
2024/01/31 04:26:20;;;;;;;6.50;5.00;;;5.00;62.80;;;;;;5093962;28;20056;-71
2024/01/31 04:28:46;;;;;;;6.78;5.68;;;5.00;62.70;;;;;;5076365;28;20056;-72
2024/01/31 04:31:15;;;;;;;7.43;6.07;;;5.00;62.70;;;;;;5093736;28;20501;-72
2024/01/31 04:33:41;;;;;;;7.22;5.40;;;5.00;62.70;;;;;;5076217;28;20077;-71
2024/01/31 04:36:07;;;;;;;8.18;6.30;;;4.90;62.70;;;;;;5094293;28;20031;-73
2024/01/31 04:38:33;;;;;;;8.55;5.82;;;4.90;62.70;;;;;;5093711;28;20166;-71
2024/01/31 04:41:00;;;;;;;7.95;6.25;;;5.00;62.80;;;;;;5075848;28;20110;-71
2024/01/31 04:43:26;;;;;;;7.18;5.72;;;5.00;62.80;;;;;;5075801;28;20020;-72
2024/01/31 04:45:52;;;;;;;7.70;5.78;;;5.00;62.80;;;;;;5094756;28;20389;-71
2024/01/31 04:48:17;;;;;;;7.93;6.18;;;5.00;62.70;;;;;;5075763;28;20565;-71
2024/01/31 04:50:44;;;;;;;9.57;7.20;;;5.00;62.80;;;;;;5075632;28;20030;-71
2024/01/31 04:53:10;;;;;;;9.00;6.53;;;5.00;62.80;;;;;;5093553;28;20358;-72
2024/01/31 04:55:36;;;;;;;7.53;5.78;;;5.00;62.80;;;;;;5075798;28;20024;-71
2024/01/31 04:58:02;;;;;;;8.15;6.45;;;4.90;62.70;;;;;;5093495;28;20077;-71
2024/01/31 05:00:28;;;;;;;9.40;6.88;;;4.90;62.70;;;;;;5093364;28;20047;-75
2024/01/31 05:02:54;;;;;;;8.45;6.20;;;5.00;62.80;;;;;;5093488;28;20442;-73
2024/01/31 05:05:19;;;;;;;8.00;6.18;;;4.90;62.70;;;;;;5097321;28;20032;-73
2024/01/31 05:07:46;;;;;;;8.40;5.88;;;4.90;62.80;;;;;;5098052;28;20056;-72
2024/01/31 05:10:12;;;;;;;7.85;6.20;;;4.90;62.80;;;;;;5079508;28;20020;-71
2024/01/31 05:12:38;;;;;;;8.23;6.68;;;4.90;62.70;;;;;;5097601;28;20103;-71
2024/01/31 05:15:05;;;;;;;7.95;6.05;;;4.90;63.30;;;;;;5097643;28;20107;-72
2024/01/31 05:17:31;;;;;;;7.70;5.90;;;4.90;62.80;;;;;;5079406;28;20085;-74
2024/01/31 05:19:57;;;;;;;8.00;6.30;;;4.90;62.80;;;;;;5079337;28;20020;-72
2024/01/31 05:22:22;;;;;;;7.45;5.97;;;4.90;62.80;;;;;;5097215;28;20458;-74
2024/01/31 05:24:48;;;;;;;8.20;6.47;;;4.90;62.80;;;;;;5079974;28;20052;-71
2024/01/31 05:27:14;;;;;;;8.07;6.18;;;4.90;62.80;;;;;;5097574;28;20035;-72
2024/01/31 05:29:40;;;;;;;8.65;6.20;;;4.90;62.80;;;;;;5097639;28;20024;-72
2024/01/31 05:32:06;;;;;;;9.07;6.55;;;4.90;62.80;;;;;;5098065;28;20464;-77
2024/01/31 05:34:32;;;;;;;8.90;6.55;;;4.90;62.80;;;;;;5098100;28;20457;-77
2024/01/31 05:36:58;;;;;;;7.93;5.70;;;5.00;62.80;;;;;;5080654;28;20028;-75
2024/01/31 05:39:23;;;;;;;8.05;6.07;;;4.90;62.80;;;;;;5097677;28;20073;-79
2024/01/31 05:41:49;;;;;;;9.93;6.80;;;4.90;62.80;;;;;;5097038;28;20052;-76
2024/01/31 05:44:15;;;;;;;8.30;6.13;;;4.90;62.80;;;;;;5078911;28;20364;-75
2024/01/31 05:46:41;;;;;;;9.68;7.03;;;5.00;62.80;;;;;;5096632;28;20024;-74
2024/01/31 05:49:06;;;;;;;8.27;6.20;;;5.00;62.80;;;;;;5096700;28;20454;-71
2024/01/31 05:51:32;;;;;;;8.52;6.60;;;5.00;62.80;;;;;;5078402;28;20119;-74
2024/01/31 05:53:58;;;;;;;9.02;6.53;;;5.00;62.80;;;;;;5077529;28;20039;-74
2024/01/31 05:56:24;;;;;;;8.70;6.28;;;5.10;68.00;;;;;;5078352;28;20047;-74
2024/01/31 05:58:49;;;;;;;7.78;5.57;;;5.40;68.40;;;;;;5078655;28;20365;-74
2024/01/31 06:01:15;;;;;;;8.63;6.50;;;5.60;67.50;;;;;;5078137;28;20052;-73
2024/01/31 06:03:41;;;;;;;8.35;6.15;;;5.70;67.10;;;;;;5096800;28;20110;-73
2024/01/31 06:06:07;;;;;;;8.40;6.43;;;5.80;66.70;;;;;;5077712;28;20028;-74
2024/01/31 06:08:33;;;;;;;10.43;6.70;;;5.80;66.50;;;;;;5096304;28;20037;-74
2024/01/31 06:11:08;;;;;;;9.02;6.82;;;5.80;66.20;;;;;;5078204;28;20061;-74
2024/01/31 06:13:35;;;;;;;9.07;6.93;;;5.80;66.10;;;;;;5078598;28;20115;-74
2024/01/31 06:16:02;;;;;;;8.98;6.53;;;5.80;66.00;;;;;;5095241;28;20043;-74
2024/01/31 06:18:29;;;;;;;9.40;7.18;;;5.70;65.80;;;;;;5078058;28;20027;-73
2024/01/31 06:20:55;;;;;;;9.13;6.57;;;5.70;65.70;;;;;;5095899;28;20024;-73
2024/01/31 06:23:21;;;;;;;10.05;7.30;;;5.70;65.60;;;;;;5078259;28;20470;-74
2024/01/31 06:25:48;;;;;;;8.25;6.78;;;5.70;65.60;;;;;;5078476;28;20031;-74
2024/01/31 06:28:14;;;;;;;9.48;7.13;;;5.70;65.50;;;;;;5078014;28;20035;-72
2024/01/31 06:30:48;;;;;;;9.23;7.00;;;5.70;65.40;;;;;;5096062;28;20020;-77
2024/01/31 06:33:17;;;;;;;8.73;6.90;;;5.70;65.40;;;;;;5096126;28;20497;-73
2024/01/31 06:35:43;;;;;;;9.15;7.03;;;5.70;65.30;;;;;;5096020;28;20035;-74
2024/01/31 06:38:08;;;;;;;10.18;7.60;;;5.60;65.20;;;;;;5097139;28;20410;-74
2024/01/31 06:41:03;;;;;;;9.30;6.72;;;5.60;65.10;;;;;;5077964;28;20059;-75
2024/01/31 06:43:33;;;;;;;8.05;6.32;;;5.60;65.10;;;;;;5095654;28;20039;-72
2024/01/31 06:46:34;;;;;;;9.15;7.05;;;5.60;65.00;;;;;;5096150;28;20040;-75
2024/01/31 06:49:00;;;;;;;9.05;6.88;;;5.60;64.90;;;;;;5076647;28;20016;-78
2024/01/31 06:51:46;;;;;;;8.80;6.53;;;5.60;64.80;;;;;;5078023;28;20363;-84
2024/01/31 06:54:14;;;;;;;7.90;6.00;;;5.60;64.80;;;;;;5079691;28;20059;-83
2024/01/31 06:56:40;;;;;;;7.03;5.97;;;5.60;64.80;;;;;;5098570;28;20055;-83
2024/01/31 06:59:05;;;;;;;8.32;6.40;;;5.60;64.80;;;;;;5077902;28;20024;-80
2024/01/31 07:01:31;;;;;;;8.10;6.32;;;5.60;64.70;;;;;;5077240;28;20047;-76
2024/01/31 07:03:57;;;;;;;8.40;6.80;;;5.60;64.60;;;;;;5077180;28;20096;-78
2024/01/31 07:06:23;;;;;;;8.30;6.50;;;5.60;64.50;;;;;;5095507;28;20023;-78
2024/01/31 07:08:49;;;;;;;8.55;5.97;;;5.60;64.40;;;;;;5077056;28;20031;-76
2024/01/31 07:11:14;;;;;;;9.32;6.78;;;5.60;64.30;;;;;;5095807;28;20031;-76
2024/01/31 07:13:40;;;;;;;9.50;6.82;;;5.60;64.30;;;;;;5095603;28;20024;-78
2024/01/31 07:16:12;;;;;;;8.75;6.65;;;5.70;64.20;;;;;;5093873;28;20026;-80
2024/01/31 07:18:43;;;;;;;8.05;6.18;;;5.70;64.20;;;;;;5077545;28;20024;-80
2024/01/31 07:21:23;;;;;;;9.43;6.28;;;5.70;64.20;;;;;;5094799;28;20031;-78
2024/01/31 07:23:49;;;;;;;8.43;6.32;;;5.70;64.10;;;;;;5077350;28;20034;-77
2024/01/31 07:26:26;;;;;;;8.90;6.53;;;5.80;64.10;;;;;;5095363;28;20020;-76
2024/01/31 07:29:01;;;;;;;7.90;6.22;;;5.80;64.00;;;;;;5078683;28;20024;-84
2024/01/31 07:32:01;;;;;;;;;;;;;;;;;;;;;
2024/01/31 07:34:27;;;;;;;7.53;6.00;;;5.90;64.00;;;;;;5089059;28;20050;-78
2024/01/31 07:36:59;;;;;;;9.70;6.82;;;5.90;64.00;;;;;;5096353;28;20107;-81
2024/01/31 07:39:26;;;;;;;8.77;6.18;;;5.90;63.90;;;;;;5094387;28;20089;-84
2024/01/31 07:41:52;;;;;;;8.65;6.60;;;5.90;63.80;;;;;;5093328;28;20461;-77
2024/01/31 07:44:18;;;;;;;8.25;6.32;;;6.00;63.80;;;;;;5095065;28;20027;-77
2024/01/31 07:46:44;;;;;;;9.75;7.18;;;6.00;63.70;;;;;;5094987;28;20327;-77
2024/01/31 07:49:09;;;;;;;8.07;6.57;;;6.00;63.70;;;;;;5094339;28;20093;-76
2024/01/31 07:51:43;;;;;;;8.18;6.03;;;6.10;63.70;;;;;;5094372;28;20103;-78
2024/01/31 07:54:08;;;;;;;8.15;6.55;;;6.10;63.70;;;;;;5076456;28;20020;-78
2024/01/31 07:56:34;;;;;;;8.65;7.20;;;6.10;63.60;;;;;;5093934;28;20020;-77
2024/01/31 07:59:00;;;;;;;8.95;6.50;;;6.10;63.60;;;;;;5076435;28;20031;-76
2024/01/31 08:01:26;;;;;;;7.88;6.05;;;6.20;63.60;;;;;;5076170;28;20084;-78
2024/01/31 08:03:52;;;;;;;7.40;6.07;;;6.20;63.50;;;;;;5076276;28;20024;-77
2024/01/31 08:06:18;;;;;;;8.18;6.05;;;6.20;63.50;;;;;;5076338;28;20501;-76
2024/01/31 08:08:45;;;;;;;7.82;5.95;;;6.20;63.40;;;;;;5094734;28;20142;-77
2024/01/31 08:11:12;;;;;;;8.05;5.72;;;6.30;63.40;;;;;;5094177;28;20036;-79
2024/01/31 08:13:41;;;;;;;8.40;6.30;;;6.30;63.40;;;;;;5076221;28;20023;-79
2024/01/31 08:16:07;;;;;;;8.73;5.95;;;6.40;63.30;;;;;;5094140;28;20454;-78
2024/01/31 08:18:32;;;;;;;8.85;6.35;;;6.40;63.20;;;;;;5076256;28;20024;-78
2024/01/31 08:20:58;;;;;;;7.50;5.57;;;6.40;63.20;;;;;;5094636;28;20082;-76
2024/01/31 08:23:24;;;;;;;9.30;6.45;;;6.40;63.10;;;;;;5095477;28;20020;-77
2024/01/31 08:25:50;;;;;;;7.65;5.50;;;6.50;63.10;;;;;;5076620;28;20107;-77
2024/01/31 08:28:15;;;;;;;8.07;5.60;;;6.50;63.10;;;;;;5094508;28;20024;-77
2024/01/31 08:30:42;;;;;;;7.50;5.80;;;6.60;63.00;;;;;;5094789;28;20081;-76
2024/01/31 08:33:08;;;;;;;8.23;5.82;;;6.60;62.90;;;;;;5076602;28;20028;-77
2024/01/31 08:35:33;;;;;;;7.70;5.93;;;6.60;62.90;;;;;;5076449;28;20404;-77
2024/01/31 08:37:59;;;;;;;8.13;6.13;;;6.60;62.80;;;;;;5076294;28;20106;-78
2024/01/31 08:40:25;;;;;;;8.65;6.68;;;6.70;62.80;;;;;;5075600;28;20510;-76
2024/01/31 08:42:54;;;;;;;8.30;6.18;;;6.70;62.80;;;;;;5075868;28;20032;-77
2024/01/31 08:45:20;;;;;;;8.18;6.10;;;6.70;62.70;;;;;;5076013;28;20077;-78
2024/01/31 08:47:46;;;;;;;8.40;6.50;;;6.70;62.60;;;;;;5093930;28;20012;-77
2024/01/31 08:50:11;;;;;;;8.05;5.95;;;6.70;62.60;;;;;;5075730;28;20099;-77
2024/01/31 08:52:37;;;;;;;8.02;5.68;;;6.70;62.50;;;;;;5075698;28;20032;-78
2024/01/31 08:55:05;;;;;;;7.47;5.88;;;6.70;62.50;;;;;;5094025;28;20021;-78
2024/01/31 08:57:31;;;;;;;8.85;6.30;;;6.80;62.50;;;;;;5075799;28;20024;-77
2024/01/31 08:59:57;;;;;;;7.80;5.95;;;6.80;62.50;;;;;;5075813;28;20020;-76
2024/01/31 09:02:22;;;;;;;6.97;5.55;;;6.80;62.50;;;;;;5093929;28;20083;-77
2024/01/31 09:04:48;;;;;;;7.72;6.25;;;6.80;62.50;;;;;;5075782;28;20020;-77
2024/01/31 09:07:14;;;;;;;8.18;5.95;;;6.80;63.00;;;;;;5093774;28;20464;-78
2024/01/31 09:09:40;;;;;;;9.10;6.70;;;6.90;62.40;;;;;;5075606;28;20027;-78
2024/01/31 09:12:06;;;;;;;7.57;5.78;;;6.90;62.40;;;;;;5093938;28;20111;-77
2024/01/31 09:14:35;;;;;;;8.10;6.32;;;6.90;62.30;;;;;;5093787;28;20032;-79
2024/01/31 09:17:01;;;;;;;8.45;6.22;;;6.90;62.20;;;;;;5076205;28;20476;-79
2024/01/31 09:19:28;;;;;;;7.00;5.57;;;6.90;62.20;;;;;;5077434;28;20016;-79
2024/01/31 09:21:56;;;;;;;7.32;5.53;;;6.90;62.20;;;;;;5076720;28;20077;-79
2024/01/31 09:24:22;;;;;;;6.57;5.22;;;6.90;62.10;;;;;;5094270;28;20024;-76
2024/01/31 09:26:48;;;;;;;7.53;5.57;;;6.90;62.10;;;;;;5093851;28;20379;-78
2024/01/31 09:29:14;;;;;;;7.10;5.57;;;7.00;62.10;;;;;;5093604;28;20074;-78
2024/01/31 09:31:40;;;;;;;6.68;5.60;;;7.00;62.00;;;;;;5093307;28;20493;-78
2024/01/31 09:34:05;;;;;;;7.43;6.10;;;7.00;62.00;;;;;;5075347;28;20052;-78
2024/01/31 09:36:31;;;;;;;7.32;5.63;;;7.00;62.00;;;;;;5093584;28;20020;-77
2024/01/31 09:38:57;;;;;;;7.07;5.45;;;7.00;61.90;;;;;;5075423;28;20386;-77
2024/01/31 09:41:23;;;;;;;8.05;5.75;;;7.10;61.90;;;;;;5075576;28;20031;-78
2024/01/31 09:43:51;;;;;;;7.80;5.82;;;7.10;62.00;;;;;;5092760;28;20070;-76
2024/01/31 09:46:17;;;;;;;7.80;6.13;;;7.10;61.90;;;;;;5093444;28;20072;-78
2024/01/31 09:48:43;;;;;;;7.65;5.60;;;7.10;61.90;;;;;;5075287;28;20024;-78
2024/01/31 09:51:09;;;;;;;8.05;5.70;;;7.10;61.90;;;;;;5077709;28;20024;-78
2024/01/31 09:53:37;;;;;;;6.68;5.13;;;7.10;61.80;;;;;;5097062;28;20031;-77
2024/01/31 09:56:07;;;;;;;6.47;5.50;;;7.10;61.80;;;;;;5078802;28;20093;-79
2024/01/31 09:58:33;;;;;;;7.15;5.35;;;7.20;61.80;;;;;;5096777;28;20035;-79
2024/01/31 10:01:02;;;;;;;7.05;5.45;;;7.20;61.70;;;;;;5078471;28;20405;-78
2024/01/31 10:03:28;;;;;;;6.90;5.40;;;7.30;61.70;;;;;;5097082;28;20035;-77
2024/01/31 10:05:54;;;;;;;7.32;5.55;;;7.30;61.60;;;;;;5097312;28;20357;-78
2024/01/31 10:08:20;;;;;;;6.38;5.00;;;7.30;61.50;;;;;;5098099;28;20457;-77
2024/01/31 10:10:45;;;;;;;7.88;6.00;;;7.30;61.50;;;;;;5096918;28;20101;-78
2024/01/31 10:13:11;;;;;;;7.15;5.18;;;7.30;61.50;;;;;;5078978;28;20024;-77
2024/01/31 10:15:37;;;;;;;7.03;5.53;;;7.40;61.50;;;;;;5080275;28;20028;-77
2024/01/31 10:18:04;;;;;;;6.60;5.63;;;7.40;61.50;;;;;;5097155;28;20454;-78
2024/01/31 10:20:30;;;;;;;8.90;5.72;;;7.40;61.40;;;;;;5078802;28;20335;-78
2024/01/31 10:23:01;;;;;;;7.05;5.60;;;7.40;61.40;;;;;;5078801;28;20028;-81
2024/01/31 10:25:27;;;;;;;8.15;6.10;;;7.40;61.30;;;;;;5096801;28;20077;-79
2024/01/31 10:27:53;;;;;;;8.30;5.70;;;7.40;61.30;;;;;;5078503;28;20471;-78
2024/01/31 10:30:19;;;;;;;7.70;5.75;;;7.50;61.40;;;;;;5078454;28;20032;-78
2024/01/31 10:32:50;;;;;;;6.72;5.38;;;7.50;61.30;;;;;;5077993;28;20028;-80
2024/01/31 10:35:17;;;;;;;7.78;5.82;;;7.50;61.30;;;;;;5057892;28;20029;-77
2024/01/31 10:37:42;;;;;;;8.00;5.90;;;7.50;61.80;;;;;;5076044;28;20363;-77
2024/01/31 10:40:13;;;;;;;7.15;5.53;;;7.60;61.20;;;;;;5042075;28;20012;-79
2024/01/31 10:42:38;;;;;;;7.05;5.70;;;7.60;61.20;;;;;;5077403;28;20343;-77
2024/01/31 10:45:05;;;;;;;8.07;6.07;;;7.70;61.20;;;;;;5096016;28;20107;-77
2024/01/31 10:47:32;;;;;;;7.97;5.78;;;7.70;61.10;;;;;;5077896;28;20110;-78
2024/01/31 10:49:58;;;;;;;7.65;5.55;;;7.80;61.10;;;;;;5077905;28;20020;-77
2024/01/31 10:52:31;;;;;;;6.60;5.70;;;7.80;61.00;;;;;;5095584;28;20431;-78
2024/01/31 10:55:01;;;;;;;7.10;5.65;;;7.90;61.00;;;;;;5077433;28;20042;-77
2024/01/31 10:57:28;;;;;;;7.88;6.38;;;7.90;60.90;;;;;;5095476;28;20089;-78
2024/01/31 10:59:56;;;;;;;6.95;5.82;;;8.00;60.90;;;;;;5094321;28;20020;-77
2024/01/31 11:02:31;;;;;;;7.15;5.55;;;8.00;60.80;;;;;;5075900;28;20160;-76
2024/01/31 11:04:59;;;;;;;7.85;5.63;;;8.00;60.80;;;;;;5094924;28;20031;-77
2024/01/31 11:07:25;;;;;;;8.18;6.18;;;8.00;60.80;;;;;;5077619;28;20035;-78
2024/01/31 11:09:51;;;;;;;7.20;5.40;;;8.00;60.70;;;;;;5095430;28;20020;-77
2024/01/31 11:12:17;;;;;;;7.50;5.90;;;8.10;60.70;;;;;;5095399;28;20085;-79
2024/01/31 11:14:45;;;;;;;6.03;4.63;;;8.10;60.70;;;;;;5095880;28;20027;-81
2024/01/31 11:17:17;;;;;;;6.45;4.68;;;8.20;65.00;;;;;;5078638;28;20110;-78
2024/01/31 11:20:12;;;;;;;7.45;4.68;;;8.40;64.60;;;;;;5081979;28;20054;-80
2024/01/31 11:22:38;;;;;;;6.47;4.90;;;8.60;64.30;;;;;;5095643;28;20031;-83
2024/01/31 11:25:07;;;;;;;5.93;4.50;;;8.70;63.50;;;;;;5077552;28;20105;-79
2024/01/31 11:27:33;;;;;;;6.13;4.93;;;8.80;63.20;;;;;;5077177;28;20122;-80
2024/01/31 11:29:59;;;;;;;6.40;5.20;;;8.80;62.90;;;;;;5077118;28;20107;-80
2024/01/31 11:32:25;;;;;;;7.22;5.57;;;8.80;62.70;;;;;;5077070;28;20076;-78
2024/01/31 11:34:59;;;;;;;7.88;5.65;;;8.80;62.50;;;;;;5095068;28;20020;-84
2024/01/31 11:37:25;;;;;;;6.07;5.00;;;8.80;62.30;;;;;;5095115;28;20046;-86
2024/01/31 11:39:51;;;;;;;7.15;5.10;;;8.80;62.20;;;;;;5095557;28;20098;-83
2024/01/31 11:42:16;;;;;;;6.95;5.55;;;8.80;62.10;;;;;;5080879;28;20434;-88
2024/01/31 11:44:43;;;;;;;9.27;5.65;;;8.80;62.00;;;;;;5095017;28;20474;-71
2024/01/31 11:47:09;;;;;;;7.03;4.97;;;8.80;62.70;;;;;;5095209;28;20023;-80
2024/01/31 11:49:35;;;;;;;6.72;4.63;;;9.00;66.20;;;;;;5094624;28;20072;-85
2024/01/31 11:52:01;;;;;;;6.68;4.70;;;9.20;65.20;;;;;;5083761;28;20469;-84
2024/01/31 11:54:28;;;;;;;5.78;4.78;;;9.30;64.60;;;;;;5106980;28;20027;-76
2024/01/31 11:57:00;;;;;;;6.70;5.25;;;9.40;64.20;;;;;;5081254;28;20417;-84
2024/01/31 11:59:26;;;;;;;5.68;4.82;;;9.40;63.80;;;;;;5100472;28;20020;-78
2024/01/31 12:01:52;;;;;;;6.43;4.85;;;9.40;63.60;;;;;;5084628;28;20299;-79
2024/01/31 12:04:18;;;;;;;5.85;4.60;;;9.50;63.40;;;;;;5099356;28;20016;-85
2024/01/31 12:06:44;;;;;;;6.15;4.93;;;9.40;63.20;;;;;;5083145;28;20072;-79
2024/01/31 12:09:10;;;;;;;6.78;4.85;;;9.40;63.00;;;;;;5081414;28;20024;-83
2024/01/31 12:11:36;;;;;;;6.47;4.85;;;9.40;63.40;;;;;;5079644;28;20028;-81
2024/01/31 12:14:02;;;;;;;6.97;4.70;;;9.30;62.70;;;;;;5082232;28;20027;-83
2024/01/31 12:16:39;;;;;;;7.88;5.53;;;9.30;62.60;;;;;;5080619;28;20032;-79
2024/01/31 12:19:05;;;;;;;5.78;4.75;;;9.20;62.50;;;;;;5079172;28;20016;-84
2024/01/31 12:21:41;;;;;;;5.82;4.53;;;9.20;62.30;;;;;;5080913;28;20373;-81
2024/01/31 12:24:07;;;;;;;6.30;4.72;;;9.20;62.30;;;;;;5096008;28;20107;-84
2024/01/31 12:26:32;;;;;;;6.25;5.00;;;9.10;62.20;;;;;;5078036;28;20063;-83
2024/01/31 12:29:00;;;;;;;6.35;4.50;;;9.10;62.70;;;;;;5076997;28;20020;-88
2024/01/31 12:31:26;;;;;;;6.78;4.90;;;9.10;62.10;;;;;;5078064;28;20055;-84
2024/01/31 12:33:53;;;;;;;6.15;4.70;;;9.00;62.00;;;;;;5094681;28;20035;-82
2024/01/31 12:36:20;;;;;;;6.50;4.55;;;9.00;62.00;;;;;;5094646;28;20085;-82
2024/01/31 12:38:45;;;;;;;5.70;4.60;;;9.00;61.90;;;;;;5076395;28;20027;-87
2024/01/31 12:41:11;;;;;;;6.53;4.82;;;8.90;61.70;;;;;;5076030;28;20016;-84
2024/01/31 12:43:37;;;;;;;5.68;4.20;;;8.90;61.70;;;;;;5093195;28;20024;-82
2024/01/31 12:46:03;;;;;;;5.95;4.50;;;8.80;61.60;;;;;;5094595;28;20357;-84
2024/01/31 12:48:29;;;;;;;6.15;4.38;;;8.80;61.60;;;;;;5079562;28;20032;-85
2024/01/31 12:50:56;;;;;;;6.20;4.60;;;8.70;61.50;;;;;;5077445;28;20020;-81
2024/01/31 12:53:25;;;;;;;6.05;4.53;;;8.60;61.50;;;;;;5094237;28;20378;-84
2024/01/31 12:55:51;;;;;;;6.38;4.72;;;8.60;61.40;;;;;;5094065;28;20094;-82